createdAt,value
2022-07-29T00:01:53.547Z,4.60
2022-07-29T00:04:21.610Z,4.70
2022-07-29T00:06:49.202Z,4.75
2022-07-29T00:09:16.512Z,4.60
2022-07-29T00:11:43.892Z,5.88
2022-07-29T00:14:11.197Z,4.43
2022-07-29T00:16:38.751Z,5.05
2022-07-29T00:19:06.061Z,4.43
2022-07-29T00:21:35.388Z,5.05
2022-07-29T00:24:02.627Z,4.55
2022-07-29T00:26:32.618Z,3.92
2022-07-29T00:29:31.809Z,4.13
2022-07-29T00:31:48.227Z,4.35
2022-07-29T00:34:34.322Z,4.75
2022-07-29T00:37:01.554Z,3.45
2022-07-29T00:39:28.840Z,3.97
2022-07-29T00:41:56.234Z,3.85
2022-07-29T00:44:23.508Z,3.70
2022-07-29T00:46:51.010Z,4.00
2022-07-29T00:49:18.475Z,3.80
2022-07-29T00:51:46.235Z,5.10
2022-07-29T00:54:14.161Z,4.05
2022-07-29T00:56:41.704Z,7.00
2022-07-29T00:59:08.963Z,3.88
2022-07-29T01:01:36.237Z,4.43
2022-07-29T01:04:03.861Z,3.60
2022-07-29T01:06:31.136Z,4.22
2022-07-29T01:08:59.552Z,4.10
2022-07-29T01:11:26.947Z,4.05
2022-07-29T01:13:54.580Z,4.20
2022-07-29T01:16:38.781Z,4.63
2022-07-29T01:19:34.287Z,4.75
2022-07-29T01:22:29.185Z,4.40
2022-07-29T01:25:33.991Z,4.03
2022-07-29T01:28:01.275Z,4.53
2022-07-29T01:30:33.537Z,4.32
2022-07-29T01:33:06.994Z,4.25
2022-07-29T01:35:42.008Z,4.22
2022-07-29T01:38:23.295Z,4.63
2022-07-29T01:40:54.532Z,5.28
2022-07-29T01:43:28.182Z,4.93
2022-07-29T01:46:02.793Z,5.05
2022-07-29T01:48:41.629Z,4.82
2022-07-29T01:51:21.363Z,5.68
2022-07-29T01:53:51.301Z,5.60
2022-07-29T01:56:20.916Z,5.40
2022-07-29T01:58:50.821Z,4.63
2022-07-29T02:01:19.871Z,4.53
2022-07-29T02:03:48.844Z,5.47
2022-07-29T02:06:20.372Z,5.60
2022-07-29T02:08:50.065Z,5.30
2022-07-29T02:11:17.864Z,5.03
2022-07-29T02:13:46.416Z,6.18
2022-07-29T02:16:16.215Z,5.35
2022-07-29T02:18:46.719Z,5.53
2022-07-29T02:21:16.486Z,6.03
2022-07-29T02:23:50.686Z,5.80
2022-07-29T02:26:21.368Z,6.07
2022-07-29T02:28:51.021Z,6.35
2022-07-29T02:31:20.571Z,5.68
2022-07-29T02:33:48.612Z,5.60
2022-07-29T02:36:17.500Z,6.13
2022-07-29T02:38:52.562Z,6.30
2022-07-29T02:41:21.690Z,6.50
2022-07-29T02:43:51.228Z,6.20
2022-07-29T02:46:29.477Z,6.50
2022-07-29T02:49:33.035Z,6.45
2022-07-29T02:52:03.794Z,6.10
2022-07-29T02:54:56.024Z,6.75
2022-07-29T02:57:34.061Z,6.63
2022-07-29T03:00:06.209Z,6.35
2022-07-29T03:02:45.888Z,6.30
2022-07-29T03:05:18.364Z,6.32
2022-07-29T03:07:50.699Z,9.40
2022-07-29T03:10:18.942Z,6.60
2022-07-29T03:12:47.133Z,7.00
2022-07-29T03:15:15.107Z,4.78
2022-07-29T03:17:43.937Z,6.25
2022-07-29T03:20:12.730Z,6.07
2022-07-29T03:22:44.628Z,7.80
2022-07-29T03:25:13.408Z,6.72
2022-07-29T03:27:41.076Z,5.65
2022-07-29T03:30:09.593Z,5.53
2022-07-29T03:32:37.443Z,7.47
2022-07-29T03:35:06.338Z,6.00
2022-07-29T03:37:34.511Z,6.45
2022-07-29T03:40:04.072Z,5.97
2022-07-29T03:42:34.521Z,6.15
2022-07-29T03:45:07.144Z,6.32
2022-07-29T03:47:50.822Z,6.25
2022-07-29T03:50:21.295Z,6.45
2022-07-29T03:52:49.494Z,4.88
2022-07-29T03:55:17.296Z,7.28
2022-07-29T03:57:46.665Z,6.55
2022-07-29T04:00:16.466Z,6.68
2022-07-29T04:02:49.344Z,6.13
2022-07-29T04:05:17.629Z,6.60
2022-07-29T04:07:49.006Z,6.60
2022-07-29T04:10:17.961Z,6.15
2022-07-29T04:12:57.566Z,6.55
2022-07-29T04:15:24.833Z,6.28
2022-07-29T04:17:52.118Z,5.10
2022-07-29T04:20:19.478Z,5.63
2022-07-29T04:22:46.724Z,6.60
2022-07-29T04:25:13.977Z,6.22
2022-07-29T04:28:01.111Z,6.43
2022-07-29T04:30:28.879Z,6.95
2022-07-29T04:32:56.344Z,6.00
2022-07-29T04:35:23.574Z,6.05
2022-07-29T04:37:52.081Z,6.75
2022-07-29T04:40:19.506Z,6.85
2022-07-29T04:42:47.884Z,7.28
2022-07-29T04:45:16.801Z,7.35
2022-07-29T04:50:17.632Z,6.78
2022-07-29T04:52:45.159Z,6.75
2022-07-29T04:55:12.472Z,7.35
2022-07-29T04:57:39.795Z,6.85
2022-07-29T05:00:07.857Z,6.88
2022-07-29T05:02:35.164Z,6.75
2022-07-29T05:05:02.475Z,7.50
2022-07-29T05:07:29.690Z,6.70
2022-07-29T05:09:57.996Z,7.47
2022-07-29T05:12:25.943Z,5.45
2022-07-29T05:14:53.424Z,4.72
2022-07-29T05:17:20.682Z,5.93
2022-07-29T05:19:47.969Z,7.50
2022-07-29T05:22:15.190Z,12.63
2022-07-29T05:24:42.499Z,8.90
2022-07-29T05:27:10.373Z,14.38
2022-07-29T05:29:43.683Z,8.60
2022-07-29T05:32:13.369Z,7.65
2022-07-29T05:34:50.119Z,9.90
2022-07-29T05:37:21.815Z,9.10
2022-07-29T05:39:50.859Z,7.75
2022-07-29T05:42:27.899Z,6.93
2022-07-29T05:44:55.152Z,6.85
2022-07-29T05:47:22.937Z,8.85
2022-07-29T05:49:50.376Z,8.00
2022-07-29T05:52:17.629Z,8.98
2022-07-29T05:54:44.912Z,8.20
2022-07-29T05:57:19.786Z,8.60
2022-07-29T05:59:48.061Z,8.98
2022-07-29T06:02:16.001Z,9.38
2022-07-29T06:04:43.476Z,8.40
2022-07-29T06:07:11.083Z,8.00
2022-07-29T06:09:38.337Z,7.82
2022-07-29T06:12:05.918Z,7.95
2022-07-29T06:14:33.630Z,11.05
2022-07-29T06:17:00.877Z,10.95
2022-07-29T06:19:28.155Z,8.52
2022-07-29T06:21:55.535Z,6.43
2022-07-29T06:24:22.859Z,6.30
2022-07-29T06:26:50.170Z,6.82
2022-07-29T06:29:18.045Z,5.65
2022-07-29T06:31:45.455Z,5.47
2022-07-29T06:34:12.830Z,5.63
2022-07-29T06:36:41.151Z,5.53
2022-07-29T06:39:09.307Z,5.55
2022-07-29T06:41:38.863Z,4.72
2022-07-29T06:44:10.461Z,6.10
2022-07-29T06:46:39.064Z,6.10
2022-07-29T06:49:06.749Z,4.45
2022-07-29T06:51:34.905Z,5.05
2022-07-29T06:54:12.884Z,4.22
2022-07-29T06:56:42.594Z,4.95
2022-07-29T06:59:11.473Z,5.85
2022-07-29T07:01:41.176Z,6.10
2022-07-29T07:04:11.837Z,7.45
2022-07-29T07:06:39.994Z,5.03
2022-07-29T07:09:07.394Z,6.38
2022-07-29T07:11:35.291Z,6.30
2022-07-29T07:14:04.100Z,5.50
2022-07-29T07:16:42.127Z,5.43
2022-07-29T07:19:09.486Z,5.32
2022-07-29T07:21:36.745Z,6.80
2022-07-29T07:24:04.364Z,5.22
2022-07-29T07:26:31.785Z,3.80
2022-07-29T07:28:59.082Z,6.32
2022-07-29T07:31:26.385Z,5.55
2022-07-29T07:33:54.502Z,6.28
2022-07-29T07:36:22.147Z,6.85
2022-07-29T07:38:49.404Z,5.07
2022-07-29T07:41:16.740Z,5.80
2022-07-29T07:43:43.988Z,5.90
2022-07-29T07:46:11.295Z,4.65
2022-07-29T07:48:38.637Z,7.40
2022-07-29T07:51:05.948Z,15.60
2022-07-29T07:53:34.990Z,6.47
2022-07-29T07:56:11.386Z,4.65
2022-07-29T07:58:39.729Z,6.28
2022-07-29T08:01:07.700Z,7.03
2022-07-29T08:03:35.443Z,5.95
2022-07-29T08:06:04.325Z,4.97
2022-07-29T08:08:31.580Z,5.75
2022-07-29T08:11:01.212Z,5.47
2022-07-29T08:13:31.388Z,5.20
2022-07-29T08:16:01.290Z,5.63
2022-07-29T08:18:31.077Z,5.13
2022-07-29T08:20:59.189Z,4.90
2022-07-29T08:23:46.514Z,4.95
2022-07-29T08:26:17.279Z,4.22
2022-07-29T08:28:46.801Z,5.50
2022-07-29T08:31:14.854Z,4.40
2022-07-29T08:33:43.424Z,6.72
2022-07-29T08:36:10.867Z,4.55
2022-07-29T08:38:38.194Z,7.18
2022-07-29T08:41:05.633Z,4.35
2022-07-29T08:43:33.133Z,4.93
2022-07-29T08:46:01.472Z,5.80
2022-07-29T08:48:28.881Z,4.88
2022-07-29T08:50:57.481Z,4.32
2022-07-29T08:53:27.976Z,5.60
2022-07-29T08:55:56.111Z,5.35
2022-07-29T08:58:26.125Z,4.60
2022-07-29T09:00:55.979Z,4.28
2022-07-29T09:03:30.596Z,5.35
2022-07-29T09:06:02.329Z,4.55
2022-07-29T09:08:31.500Z,4.97
2022-07-29T09:10:59.431Z,5.25
2022-07-29T09:13:27.379Z,5.13
2022-07-29T09:15:54.976Z,5.03
2022-07-29T09:18:37.238Z,5.30
2022-07-29T09:21:24.881Z,4.32
2022-07-29T09:24:02.137Z,4.63
2022-07-29T09:26:31.852Z,4.78
2022-07-29T09:29:00.164Z,4.18
2022-07-29T09:31:36.210Z,5.32
2022-07-29T09:34:04.672Z,4.00
2022-07-29T09:36:32.055Z,5.07
2022-07-29T09:39:03.788Z,5.07
2022-07-29T09:41:54.602Z,4.95
2022-07-29T09:44:23.342Z,4.13
2022-07-29T09:47:08.145Z,3.65
2022-07-29T09:50:00.753Z,3.85
2022-07-29T09:52:29.689Z,4.40
2022-07-29T09:55:07.581Z,4.43
2022-07-29T09:57:34.905Z,8.43
2022-07-29T10:00:13.950Z,4.22
2022-07-29T10:02:44.908Z,4.30
2022-07-29T10:05:27.072Z,4.45
2022-07-29T10:08:04.630Z,5.10
2022-07-29T10:12:01.483Z,4.60
2022-07-29T10:14:30.648Z,5.53
2022-07-29T10:16:58.815Z,4.10
2022-07-29T10:19:26.277Z,5.07
2022-07-29T10:21:57.917Z,4.38
2022-07-29T10:24:29.287Z,4.10
2022-07-29T10:26:57.983Z,4.60
2022-07-29T10:29:52.234Z,4.38
2022-07-29T10:32:37.443Z,4.15
2022-07-29T10:35:13.436Z,3.97
2022-07-29T10:38:06.728Z,4.30
2022-07-29T10:41:08.904Z,4.80
2022-07-29T10:43:44.671Z,5.78
2022-07-29T10:46:15.527Z,4.07
2022-07-29T10:49:05.519Z,4.40
2022-07-29T10:51:57.806Z,4.60
2022-07-29T10:54:34.786Z,3.72
2022-07-29T10:57:14.497Z,5.05
2022-07-29T10:59:44.178Z,4.47
2022-07-29T11:02:42.699Z,3.67
2022-07-29T11:05:13.869Z,4.22
2022-07-29T11:08:21.218Z,3.83
2022-07-29T11:11:15.892Z,3.28
2022-07-29T11:13:44.829Z,4.13
2022-07-29T11:16:16.116Z,3.50
2022-07-29T11:19:11.533Z,3.95
2022-07-29T11:21:54.712Z,3.50
2022-07-29T11:24:33.361Z,3.45
2022-07-29T11:27:13.375Z,4.22
2022-07-29T11:29:58.503Z,3.80
2022-07-29T11:32:37.545Z,4.32
2022-07-29T11:35:36.986Z,3.45
2022-07-29T11:38:31.823Z,3.65
2022-07-29T11:41:30.115Z,3.63
2022-07-29T11:44:01.408Z,3.88
2022-07-29T11:46:53.868Z,3.60
2022-07-29T11:49:32.325Z,3.17
2022-07-29T11:54:57.866Z,3.25
2022-07-29T11:57:36.545Z,3.40
2022-07-29T12:03:04.079Z,3.88
2022-07-29T12:05:52.037Z,3.65
2022-07-29T12:07:02.431Z,3.45
2022-07-29T12:08:22.675Z,3.88
2022-07-29T12:10:51.659Z,2.97
2022-07-29T12:13:21.194Z,3.08
2022-07-29T12:15:59.993Z,3.10
2022-07-29T12:18:27.910Z,3.72
2022-07-29T12:21:05.665Z,2.90
2022-07-29T12:23:34.794Z,3.60
2022-07-29T12:26:11.133Z,3.47
2022-07-29T12:28:49.819Z,3.50
2022-07-29T12:31:41.887Z,3.35
2022-07-29T12:34:05.112Z,3.28
2022-07-29T12:36:33.428Z,3.72
2022-07-29T12:39:00.892Z,3.10
2022-07-29T12:41:31.575Z,3.20
2022-07-29T12:43:59.087Z,2.92
2022-07-29T12:46:26.529Z,3.60
2022-07-29T12:48:58.416Z,3.28
2022-07-29T12:51:34.517Z,3.42
2022-07-29T12:54:07.169Z,3.58
2022-07-29T12:56:43.564Z,3.20
2022-07-29T12:59:15.452Z,3.50
2022-07-29T13:01:44.291Z,4.00
2022-07-29T13:04:12.065Z,3.60
2022-07-29T13:06:45.894Z,3.35
2022-07-29T13:09:18.428Z,3.20
2022-07-29T13:11:48.741Z,3.50
2022-07-29T13:14:34.863Z,2.95
2022-07-29T13:17:06.278Z,3.35
2022-07-29T13:19:51.165Z,3.03
2022-07-29T13:22:20.552Z,3.15
2022-07-29T13:25:04.613Z,3.65
2022-07-29T13:27:34.648Z,4.22
2022-07-29T13:30:03.954Z,3.30
2022-07-29T13:32:31.736Z,4.70
2022-07-29T13:35:05.410Z,3.10
2022-07-29T13:37:36.915Z,3.10
2022-07-29T13:42:34.246Z,3.10
2022-07-29T13:45:02.713Z,3.13
2022-07-29T13:47:32.529Z,4.40
2022-07-29T13:50:02.084Z,4.05
2022-07-29T13:52:29.866Z,3.45
2022-07-29T13:54:57.452Z,5.57
2022-07-29T13:57:25.136Z,3.45
2022-07-29T13:59:54.310Z,4.00
2022-07-29T14:02:25.293Z,3.20
2022-07-29T14:04:56.627Z,8.40
2022-07-29T14:07:24.304Z,3.65
2022-07-29T14:09:52.193Z,3.60
2022-07-29T14:12:20.229Z,3.78
2022-07-29T14:14:47.568Z,3.38
2022-07-29T14:17:15.776Z,3.47
2022-07-29T14:19:43.183Z,3.13
2022-07-29T14:22:11.008Z,5.45
2022-07-29T14:24:38.929Z,3.33
2022-07-29T14:27:07.715Z,3.35
2022-07-29T14:29:38.332Z,3.75
2022-07-29T14:32:08.041Z,3.78
2022-07-29T14:34:37.230Z,4.03
2022-07-29T14:37:06.578Z,3.72
2022-07-29T14:39:42.135Z,4.28
2022-07-29T14:42:12.438Z,3.95
2022-07-29T14:44:48.369Z,4.18
2022-07-29T14:47:15.886Z,3.85
2022-07-29T14:49:43.237Z,4.25
2022-07-29T14:52:13.941Z,4.20
2022-07-29T14:54:41.424Z,4.00
2022-07-29T14:57:08.687Z,4.70
2022-07-29T14:59:36.306Z,5.40
2022-07-29T15:02:04.042Z,5.00
2022-07-29T15:04:31.820Z,5.20
2022-07-29T15:06:59.136Z,4.60
2022-07-29T15:09:26.373Z,5.00
2022-07-29T15:12:31.678Z,4.97
2022-07-29T15:14:59.378Z,5.00
2022-07-29T15:17:26.721Z,4.85
2022-07-29T15:23:39.573Z,4.60
2022-07-29T15:26:09.147Z,6.65
2022-07-29T15:28:36.513Z,5.72
2022-07-29T15:31:04.883Z,6.55
2022-07-29T15:33:32.525Z,6.20
2022-07-29T15:35:59.938Z,5.80
2022-07-29T15:38:28.719Z,5.60
2022-07-29T15:40:57.379Z,6.57
2022-07-29T15:43:24.723Z,6.07
2022-07-29T15:46:12.855Z,5.57
2022-07-29T15:48:40.549Z,7.82
2022-07-29T15:51:07.818Z,6.65
2022-07-29T15:53:35.415Z,5.95
2022-07-29T15:56:03.038Z,6.10
2022-07-29T15:58:31.012Z,6.38
2022-07-29T16:00:58.801Z,7.10
2022-07-29T16:03:26.171Z,5.68
2022-07-29T16:05:53.380Z,6.40
2022-07-29T16:08:20.903Z,5.53
2022-07-29T16:10:48.171Z,7.45
2022-07-29T16:13:17.014Z,9.02
2022-07-29T16:15:46.331Z,8.68
2022-07-29T16:18:30.698Z,7.28
2022-07-29T16:20:58.487Z,7.00
2022-07-29T16:23:25.735Z,8.30
2022-07-29T16:26:01.199Z,9.32
2022-07-29T16:28:29.761Z,10.45
2022-07-29T16:30:57.452Z,10.38
2022-07-29T16:33:25.143Z,10.40
2022-07-29T16:35:52.796Z,12.73
2022-07-29T16:38:20.209Z,11.35
2022-07-29T16:40:47.621Z,10.73
2022-07-29T16:43:14.936Z,11.07
2022-07-29T16:45:45.899Z,12.25
2022-07-29T16:48:14.673Z,10.25
2022-07-29T16:50:43.278Z,10.00
2022-07-29T16:53:11.138Z,10.60
2022-07-29T16:55:38.661Z,9.60
2022-07-29T16:58:10.516Z,7.95
2022-07-29T17:00:38.484Z,7.10
2022-07-29T17:03:05.731Z,6.80
2022-07-29T17:05:50.308Z,7.43
2022-07-29T17:08:20.126Z,7.45
2022-07-29T17:10:47.614Z,8.85
2022-07-29T17:13:14.865Z,9.45
2022-07-29T17:15:45.197Z,8.65
2022-07-29T17:18:13.092Z,8.70
2022-07-29T17:20:42.042Z,9.15
2022-07-29T17:23:09.514Z,8.70
2022-07-29T17:25:36.743Z,8.63
2022-07-29T17:28:04.133Z,8.45
2022-07-29T17:30:31.335Z,7.53
2022-07-29T17:32:58.931Z,8.43
2022-07-29T17:35:44.599Z,8.15
2022-07-29T17:38:11.904Z,8.48
2022-07-29T17:40:39.176Z,8.50
2022-07-29T17:43:09.200Z,8.93
2022-07-29T17:45:49.901Z,9.70
2022-07-29T17:48:19.381Z,8.95
2022-07-29T17:50:47.942Z,11.32
2022-07-29T17:53:16.245Z,10.02
2022-07-29T17:55:45.707Z,9.82
2022-07-29T17:58:13.232Z,9.52
2022-07-29T18:00:41.025Z,10.52
2022-07-29T18:03:09.077Z,10.60
2022-07-29T18:05:36.731Z,10.98
2022-07-29T18:08:04.210Z,9.60
2022-07-29T18:10:31.524Z,10.23
2022-07-29T18:12:58.928Z,9.60
2022-07-29T18:15:26.419Z,9.32
2022-07-29T18:17:57.610Z,10.40
2022-07-29T18:20:26.424Z,10.73
2022-07-29T18:22:53.697Z,9.85
2022-07-29T18:25:21.002Z,10.00
2022-07-29T18:27:48.316Z,11.13
2022-07-29T18:30:16.130Z,11.52
2022-07-29T18:32:59.200Z,11.02
2022-07-29T18:35:31.666Z,10.20
2022-07-29T18:38:01.820Z,10.88
2022-07-29T18:40:30.200Z,10.55
2022-07-29T18:42:57.823Z,10.48
2022-07-29T18:45:28.643Z,8.90
2022-07-29T18:47:56.688Z,10.88
2022-07-29T18:50:29.415Z,12.40
2022-07-29T18:55:26.624Z,11.00
2022-07-29T18:57:55.832Z,11.75
2022-07-29T19:00:25.286Z,12.73
2022-07-29T19:02:53.193Z,12.63
2022-07-29T19:05:21.065Z,13.45
2022-07-29T19:07:48.348Z,13.02
2022-07-29T19:10:15.604Z,12.15
2022-07-29T19:12:43.035Z,10.30
2022-07-29T19:15:10.802Z,11.38
2022-07-29T19:17:38.827Z,12.15
2022-07-29T19:20:07.649Z,13.30
2022-07-29T19:22:35.143Z,11.45
2022-07-29T19:25:02.497Z,11.40
2022-07-29T19:27:29.814Z,12.05
2022-07-29T19:29:59.387Z,11.18
2022-07-29T19:32:27.271Z,13.57
2022-07-29T19:35:13.231Z,12.65
2022-07-29T19:37:40.501Z,12.73
2022-07-29T19:40:08.200Z,13.05
2022-07-29T19:42:35.384Z,10.48
2022-07-29T19:45:02.677Z,9.88
2022-07-29T19:47:29.936Z,10.13
2022-07-29T19:49:57.235Z,10.95
2022-07-29T19:52:24.484Z,11.13
2022-07-29T19:54:51.864Z,12.43
2022-07-29T19:57:19.373Z,12.60
2022-07-29T19:59:46.609Z,12.88
2022-07-29T20:02:13.907Z,12.55
2022-07-29T20:04:42.902Z,12.75
2022-07-29T20:07:10.213Z,15.50
2022-07-29T20:09:39.986Z,15.52
2022-07-29T20:12:11.008Z,17.13
2022-07-29T20:14:38.452Z,16.33
2022-07-29T20:17:06.080Z,15.48
2022-07-29T20:19:33.373Z,14.55
2022-07-29T20:22:00.983Z,15.27
2022-07-29T20:24:28.331Z,13.23
2022-07-29T20:26:55.641Z,15.15
2022-07-29T20:29:22.992Z,14.93
2022-07-29T20:31:52.277Z,14.57
2022-07-29T20:34:24.188Z,16.25
2022-07-29T20:36:51.500Z,16.13
2022-07-29T20:39:20.993Z,15.10
2022-07-29T20:41:48.953Z,15.48
2022-07-29T20:44:18.793Z,19.13
2022-07-29T20:46:46.252Z,20.40
2022-07-29T20:49:13.561Z,21.27
2022-07-29T20:51:43.583Z,21.38
2022-07-29T20:54:11.845Z,21.65
2022-07-29T20:56:39.454Z,22.40
2022-07-29T20:59:06.875Z,24.13
2022-07-29T21:01:35.067Z,21.35
2022-07-29T21:04:03.085Z,24.20
2022-07-29T21:06:30.884Z,20.40
2022-07-29T21:08:59.660Z,23.77
2022-07-29T21:11:44.228Z,21.80
2022-07-29T21:14:23.163Z,24.92
2022-07-29T21:16:50.685Z,24.35
2022-07-29T21:19:17.911Z,26.40
2022-07-29T21:21:45.149Z,22.30
2022-07-29T21:24:12.475Z,25.38
2022-07-29T21:26:39.689Z,22.35
2022-07-29T21:29:06.937Z,23.63
2022-07-29T21:31:34.147Z,24.45
2022-07-29T21:34:01.386Z,21.73
2022-07-29T21:36:47.676Z,23.23
2022-07-29T21:39:15.859Z,18.27
2022-07-29T21:41:43.080Z,20.77
2022-07-29T21:44:10.326Z,20.48
2022-07-29T21:46:37.619Z,21.45
2022-07-29T21:49:05.018Z,19.15
2022-07-29T21:51:32.358Z,20.38
2022-07-29T21:53:59.651Z,20.98
2022-07-29T21:56:27.820Z,21.02
2022-07-29T21:58:56.107Z,19.33
2022-07-29T22:01:24.004Z,19.50
2022-07-29T22:03:51.432Z,19.23
2022-07-29T22:06:19.040Z,19.50
2022-07-29T22:08:46.310Z,19.30
2022-07-29T22:11:13.612Z,19.73
2022-07-29T22:13:40.836Z,20.33
2022-07-29T22:16:10.102Z,20.10
2022-07-29T22:18:37.400Z,20.98
2022-07-29T22:21:04.618Z,20.80
2022-07-29T22:23:31.832Z,20.98
2022-07-29T22:25:59.076Z,19.45
2022-07-29T22:28:26.279Z,20.00
2022-07-29T22:30:53.538Z,20.70
2022-07-29T22:33:20.851Z,20.00
2022-07-29T22:35:49.215Z,18.38
2022-07-29T22:38:17.748Z,17.85
2022-07-29T22:40:45.315Z,20.67
2022-07-29T22:43:12.878Z,19.17
2022-07-29T22:45:40.103Z,17.70
2022-07-29T22:48:07.436Z,19.17
2022-07-29T22:50:34.707Z,16.05
2022-07-29T22:53:01.907Z,20.00
2022-07-29T22:55:29.125Z,16.08
2022-07-29T22:57:56.374Z,16.75
2022-07-29T23:00:23.981Z,17.67
2022-07-29T23:02:51.193Z,17.35
2022-07-29T23:05:18.548Z,18.25
2022-07-29T23:07:45.833Z,16.55
2022-07-29T23:10:13.161Z,18.48
2022-07-29T23:12:40.386Z,18.00
2022-07-29T23:15:07.873Z,16.60
2022-07-29T23:17:36.050Z,17.92
2022-07-29T23:20:09.936Z,16.52
2022-07-29T23:25:06.182Z,15.52
2022-07-29T23:27:33.629Z,16.23
2022-07-29T23:30:00.883Z,17.67
2022-07-29T23:32:28.165Z,16.65
2022-07-29T23:34:55.463Z,16.95
2022-07-29T23:37:22.924Z,19.27
2022-07-29T23:39:50.237Z,16.40
2022-07-29T23:42:17.519Z,17.35
2022-07-29T23:44:44.748Z,15.80
2022-07-29T23:47:11.959Z,16.77
2022-07-29T23:49:39.364Z,17.05
2022-07-29T23:52:06.760Z,18.40
2022-07-29T23:54:34.015Z,18.13
2022-07-29T23:57:01.486Z,18.52
2022-07-29T23:59:28.970Z,17.45
